Time;durP1;ratioP1;P1;durP2;ratioP2;P2;SDS_P1;SDS_P2;PMS_P1;PMS_P2;Temp;Humidity;BMP_temperature;BMP_pressure;BME280_temperature;BME280_humidity;BME280_pressure;Samples;Min_cycle;Max_cycle;Signal;HPM_P1;HPM_P2
2022/10/06 00:00:29;;;;;;;7.13;3.20;;;13.90;99.90;;;;;;5051396;28;20442;-79
2022/10/06 00:02:54;;;;;;;8.98;3.72;;;13.90;99.90;;;;;;5052054;28;20411;-72
2022/10/06 00:05:20;;;;;;;7.03;3.28;;;13.90;99.90;;;;;;5052239;28;20476;-73
2022/10/06 00:07:47;;;;;;;4.78;2.95;;;13.90;99.90;;;;;;5051358;28;20033;-74
2022/10/06 00:10:12;;;;;;;7.63;3.13;;;13.80;99.90;;;;;;5051621;28;20044;-73
2022/10/06 00:12:43;;;;;;;5.28;2.95;;;13.80;99.90;;;;;;5051241;28;20440;-74
2022/10/06 00:15:10;;;;;;;6.25;3.28;;;13.80;99.90;;;;;;5052134;28;20057;-73
2022/10/06 00:17:36;;;;;;;8.45;3.45;;;13.80;99.90;;;;;;5051507;28;20035;-73
2022/10/06 00:20:02;;;;;;;10.05;4.10;;;13.70;99.90;;;;;;5052011;28;20112;-73
2022/10/06 00:22:39;;;;;;;4.97;3.20;;;13.70;99.90;;;;;;5051811;28;20043;-72
2022/10/06 00:25:06;;;;;;;6.35;3.80;;;13.70;99.90;;;;;;5051906;28;20023;-73
2022/10/06 00:27:35;;;;;;;4.28;3.20;;;13.60;99.90;;;;;;5054426;28;20036;-78
2022/10/06 00:30:06;;;;;;;7.03;3.40;;;13.60;99.90;;;;;;5055776;28;20029;-72
2022/10/06 00:32:31;;;;;;;6.40;3.50;;;13.60;99.90;;;;;;5055291;28;20106;-77
2022/10/06 00:34:58;;;;;;;4.68;2.97;;;13.60;99.90;;;;;;5055715;28;20465;-73
2022/10/06 00:37:27;;;;;;;6.45;3.53;;;13.50;99.90;;;;;;5055196;28;20474;-73
2022/10/06 00:39:54;;;;;;;5.57;3.13;;;13.50;99.90;;;;;;5054802;28;20037;-73
2022/10/06 00:42:28;;;;;;;5.47;3.30;;;13.50;99.90;;;;;;5055381;28;20029;-73
2022/10/06 00:44:56;;;;;;;6.18;3.38;;;13.50;99.90;;;;;;5054580;28;20053;-73
2022/10/06 00:47:24;;;;;;;5.43;3.08;;;13.40;99.90;;;;;;5055570;28;20469;-73
2022/10/06 00:49:53;;;;;;;5.20;3.17;;;13.40;99.90;;;;;;5054747;28;20021;-72
2022/10/06 00:52:23;;;;;;;7.43;3.80;;;13.40;99.90;;;;;;5054897;28;20028;-74
2022/10/06 00:54:49;;;;;;;5.30;3.42;;;13.40;99.90;;;;;;5054250;28;20029;-72
2022/10/06 00:57:15;;;;;;;9.30;4.13;;;13.40;99.90;;;;;;5054637;28;20032;-72
2022/10/06 00:59:41;;;;;;;8.98;3.67;;;13.30;99.90;;;;;;5054661;28;20044;-73
2022/10/06 01:02:24;;;;;;;4.60;3.05;;;13.30;99.90;;;;;;5054931;28;20033;-73
2022/10/06 01:04:55;;;;;;;11.15;4.20;;;13.30;99.90;;;;;;5054377;28;20024;-72
2022/10/06 01:07:25;;;;;;;5.25;3.03;;;13.30;99.90;;;;;;5055078;28;20024;-73
2022/10/06 01:09:51;;;;;;;4.68;3.47;;;13.30;99.90;;;;;;5054007;28;20025;-73
2022/10/06 01:12:18;;;;;;;7.07;3.50;;;13.40;99.90;;;;;;5054788;28;20052;-72
2022/10/06 01:14:43;;;;;;;4.72;3.35;;;13.40;99.90;;;;;;5054236;28;20326;-72
2022/10/06 01:17:42;;;;;;;5.55;3.60;;;13.40;99.90;;;;;;5054544;28;20028;-73
2022/10/06 01:20:12;;;;;;;9.82;3.90;;;13.40;99.90;;;;;;5055010;28;20402;-73
2022/10/06 01:22:44;;;;;;;6.13;3.92;;;13.30;99.90;;;;;;5054057;28;20021;-73
2022/10/06 01:25:13;;;;;;;8.05;4.18;;;13.30;99.90;;;;;;5054422;28;20104;-74
2022/10/06 01:27:41;;;;;;;8.45;3.70;;;13.30;99.90;;;;;;5053958;28;20029;-73
2022/10/06 01:30:10;;;;;;;7.00;4.18;;;13.30;99.90;;;;;;5054314;28;20075;-73
2022/10/06 01:32:38;;;;;;;7.55;3.80;;;13.30;99.90;;;;;;5054150;28;20055;-77
2022/10/06 01:35:06;;;;;;;6.90;4.05;;;13.30;99.90;;;;;;5054332;28;20382;-73
2022/10/06 01:37:31;;;;;;;5.15;3.78;;;13.30;99.90;;;;;;5053623;28;20032;-73
2022/10/06 01:39:57;;;;;;;8.65;4.15;;;13.30;99.90;;;;;;5053244;28;20037;-73
2022/10/06 01:42:23;;;;;;;7.70;4.13;;;13.20;99.90;;;;;;5054150;28;20029;-73
2022/10/06 01:44:48;;;;;;;6.68;4.47;;;13.10;99.90;;;;;;5053685;28;20027;-73
2022/10/06 01:47:14;;;;;;;8.02;4.28;;;13.10;99.90;;;;;;5054082;28;20029;-73
2022/10/06 01:49:39;;;;;;;7.93;4.82;;;13.10;99.90;;;;;;5053823;28;20032;-73
2022/10/06 01:52:05;;;;;;;5.72;3.97;;;13.10;99.90;;;;;;5053782;28;20437;-72
2022/10/06 01:54:31;;;;;;;7.20;4.53;;;13.10;99.90;;;;;;5053952;28;20041;-72
2022/10/06 01:56:56;;;;;;;7.82;4.50;;;13.10;99.90;;;;;;5053256;28;20024;-73
2022/10/06 01:59:23;;;;;;;6.90;3.97;;;13.10;99.90;;;;;;5053818;28;20059;-73
2022/10/06 02:01:49;;;;;;;8.15;4.85;;;13.10;99.90;;;;;;5053268;28;20037;-73
2022/10/06 02:04:14;;;;;;;6.88;4.03;;;13.10;99.90;;;;;;5053410;28;20465;-72
2022/10/06 02:06:40;;;;;;;11.70;4.70;;;13.00;99.90;;;;;;5053218;28;20082;-73
2022/10/06 02:09:06;;;;;;;5.00;4.07;;;13.00;99.90;;;;;;5053271;28;20063;-73
2022/10/06 02:11:31;;;;;;;7.78;4.60;;;13.00;99.90;;;;;;5053488;28;20112;-73
2022/10/06 02:13:58;;;;;;;6.40;4.35;;;13.00;99.90;;;;;;5053040;28;20097;-73
2022/10/06 02:16:23;;;;;;;6.03;4.25;;;12.90;99.90;;;;;;5053349;28;20037;-73
2022/10/06 02:18:49;;;;;;;5.03;3.92;;;12.90;99.90;;;;;;5052656;28;20032;-73
2022/10/06 02:21:18;;;;;;;8.65;4.47;;;12.90;99.90;;;;;;5053168;28;20074;-73
2022/10/06 02:23:44;;;;;;;8.85;4.35;;;12.80;99.90;;;;;;5052596;28;20033;-72
2022/10/06 02:26:11;;;;;;;7.60;4.85;;;12.90;99.90;;;;;;5052678;28;20100;-73
2022/10/06 02:28:36;;;;;;;10.65;4.47;;;12.90;99.90;;;;;;5053201;28;20395;-73
2022/10/06 02:31:07;;;;;;;7.38;4.10;;;12.80;99.90;;;;;;5052561;28;20053;-72
2022/10/06 02:33:35;;;;;;;10.27;3.83;;;12.80;99.90;;;;;;5053176;28;20053;-72
2022/10/06 02:36:01;;;;;;;11.35;4.15;;;12.80;99.90;;;;;;5052561;28;20034;-73
2022/10/06 02:38:28;;;;;;;8.30;4.57;;;12.80;99.90;;;;;;5052782;28;20102;-73
2022/10/06 02:40:53;;;;;;;7.43;4.00;;;12.80;99.90;;;;;;5052299;28;20493;-73
2022/10/06 02:43:20;;;;;;;10.73;4.47;;;12.80;99.90;;;;;;5053409;28;20059;-73
2022/10/06 02:45:57;;;;;;;7.55;4.18;;;12.80;99.90;;;;;;5054001;28;20075;-73
2022/10/06 02:48:23;;;;;;;5.55;4.35;;;12.80;99.90;;;;;;5053884;28;20070;-72
2022/10/06 02:51:00;;;;;;;7.80;4.00;;;12.70;99.90;;;;;;5054326;28;20033;-72
2022/10/06 02:53:27;;;;;;;10.27;4.03;;;12.70;99.90;;;;;;5054120;28;20032;-72
2022/10/06 02:56:05;;;;;;;9.43;4.15;;;12.70;99.90;;;;;;5053405;28;20035;-73
2022/10/06 02:58:31;;;;;;;6.78;4.28;;;12.60;99.90;;;;;;5052854;28;20116;-73
2022/10/06 03:01:04;;;;;;;6.68;3.55;;;12.60;99.90;;;;;;5052250;28;20120;-74
2022/10/06 03:03:31;;;;;;;6.50;3.50;;;12.60;99.90;;;;;;5052480;28;20036;-73
2022/10/06 03:06:20;;;;;;;8.25;3.50;;;12.50;99.90;;;;;;5051940;28;20028;-73
2022/10/06 03:08:50;;;;;;;7.13;3.92;;;12.50;99.90;;;;;;5051913;28;20377;-74
2022/10/06 03:11:20;;;;;;;7.70;4.20;;;12.50;99.90;;;;;;5051634;28;20346;-73
2022/10/06 03:13:47;;;;;;;12.15;4.43;;;12.50;99.90;;;;;;5051782;28;20035;-74
2022/10/06 03:16:18;;;;;;;7.18;3.47;;;12.50;99.90;;;;;;5052376;28;20029;-73
2022/10/06 03:18:45;;;;;;;8.20;4.50;;;12.40;99.90;;;;;;5052042;28;20108;-77
2022/10/06 03:21:13;;;;;;;6.72;3.35;;;12.40;99.90;;;;;;5052273;28;20021;-73
2022/10/06 03:23:39;;;;;;;6.72;4.20;;;12.40;99.90;;;;;;5051960;28;20072;-73
2022/10/06 03:26:05;;;;;;;5.72;3.22;;;12.40;99.90;;;;;;5051838;28;20025;-74
2022/10/06 03:28:31;;;;;;;6.43;3.80;;;12.40;99.90;;;;;;5052027;28;20025;-74
2022/10/06 03:31:01;;;;;;;6.82;4.38;;;12.40;99.90;;;;;;5051589;28;20095;-73
2022/10/06 03:33:27;;;;;;;5.63;3.43;;;12.50;99.90;;;;;;5051988;28;20029;-73
2022/10/06 03:36:10;;;;;;;5.82;3.67;;;12.50;99.90;;;;;;5051617;28;20028;-73
2022/10/06 03:38:36;;;;;;;8.40;3.97;;;12.50;99.90;;;;;;5051957;28;20036;-72
2022/10/06 03:41:11;;;;;;;5.63;3.60;;;12.50;99.90;;;;;;5051362;28;20049;-73
2022/10/06 03:43:38;;;;;;;8.52;3.70;;;12.40;99.90;;;;;;5052188;28;20043;-72
2022/10/06 03:46:05;;;;;;;4.95;3.28;;;12.50;99.90;;;;;;5051494;28;20163;-73
2022/10/06 03:48:33;;;;;;;8.18;3.88;;;12.40;99.90;;;;;;5052066;28;20036;-73
2022/10/06 03:51:04;;;;;;;6.28;3.40;;;12.40;99.90;;;;;;5051465;28;20033;-72
2022/10/06 03:53:30;;;;;;;5.22;3.35;;;12.30;99.90;;;;;;5052216;28;20450;-73
2022/10/06 03:56:15;;;;;;;9.68;3.60;;;12.30;99.90;;;;;;5051428;28;20031;-72
2022/10/06 03:58:43;;;;;;;6.68;4.30;;;12.30;99.90;;;;;;5052098;28;20385;-73
2022/10/06 04:01:11;;;;;;;5.75;3.50;;;12.30;99.90;;;;;;5055129;28;20108;-73
2022/10/06 04:03:37;;;;;;;8.85;4.10;;;12.20;99.90;;;;;;5056100;28;20025;-72
2022/10/06 04:06:05;;;;;;;7.90;3.78;;;12.20;99.90;;;;;;5055491;28;20028;-73
2022/10/06 04:08:34;;;;;;;8.68;3.40;;;12.20;99.90;;;;;;5056192;28;20044;-73
2022/10/06 04:11:11;;;;;;;6.55;3.55;;;12.10;99.90;;;;;;5055409;28;20473;-73
2022/10/06 04:13:38;;;;;;;8.07;3.85;;;12.10;99.90;;;;;;5055592;28;20032;-73
2022/10/06 04:16:24;;;;;;;4.95;3.55;;;12.10;99.90;;;;;;5055337;28;20017;-72
2022/10/06 04:19:01;;;;;;;6.63;3.90;;;12.10;99.90;;;;;;5055250;28;20067;-73
2022/10/06 04:21:29;;;;;;;5.78;3.88;;;12.10;99.90;;;;;;5056112;28;20029;-73
2022/10/06 04:23:57;;;;;;;6.53;3.58;;;12.10;99.90;;;;;;5054973;28;20040;-73
2022/10/06 04:26:26;;;;;;;7.70;4.47;;;12.10;99.90;;;;;;5055367;28;20024;-72
2022/10/06 04:28:53;;;;;;;8.73;4.05;;;12.10;99.90;;;;;;5054613;28;20100;-73
2022/10/06 04:31:27;;;;;;;8.65;4.38;;;12.10;99.90;;;;;;5055268;28;20056;-73
2022/10/06 04:33:55;;;;;;;7.57;4.32;;;12.00;99.90;;;;;;5054916;28;20094;-73
2022/10/06 04:36:27;;;;;;;9.65;4.55;;;12.10;99.90;;;;;;5055291;28;20087;-73
2022/10/06 04:38:57;;;;;;;12.10;4.53;;;12.10;99.90;;;;;;5054475;28;20067;-73
2022/10/06 04:41:24;;;;;;;7.07;4.18;;;12.00;99.90;;;;;;5055398;28;20478;-73
2022/10/06 04:43:51;;;;;;;5.25;3.85;;;12.10;99.90;;;;;;5054335;28;20025;-74
2022/10/06 04:46:18;;;;;;;9.35;4.45;;;12.10;99.90;;;;;;5053515;28;20032;-73
2022/10/06 04:48:44;;;;;;;9.05;4.35;;;12.00;99.90;;;;;;5053959;28;20373;-73
2022/10/06 04:51:14;;;;;;;10.23;4.65;;;12.00;99.90;;;;;;5053642;28;20182;-74
2022/10/06 04:53:43;;;;;;;7.90;4.35;;;12.00;99.90;;;;;;5050090;28;20078;-75
2022/10/06 04:56:17;;;;;;;10.23;4.07;;;12.00;99.90;;;;;;5053604;28;20020;-73
2022/10/06 04:58:45;;;;;;;8.07;4.00;;;12.00;99.90;;;;;;5052130;28;20132;-73
2022/10/06 05:01:21;;;;;;;7.03;4.13;;;12.00;99.90;;;;;;5054063;28;20036;-73
2022/10/06 05:03:49;;;;;;;10.32;4.60;;;12.00;99.90;;;;;;5054866;28;20025;-73
2022/10/06 05:06:23;;;;;;;9.70;4.35;;;12.00;99.90;;;;;;5054632;28;20040;-73
2022/10/06 05:08:52;;;;;;;9.55;4.70;;;12.00;99.90;;;;;;5054709;28;20029;-79
2022/10/06 05:11:18;;;;;;;12.27;4.68;;;12.00;99.90;;;;;;5053985;28;20343;-73
2022/10/06 05:13:45;;;;;;;7.03;4.47;;;12.00;99.90;;;;;;5054771;28;20029;-73
2022/10/06 05:16:14;;;;;;;8.18;4.05;;;12.00;99.90;;;;;;5054110;28;20024;-73
2022/10/06 05:18:40;;;;;;;9.00;4.63;;;12.00;99.90;;;;;;5054267;28;20496;-73
2022/10/06 05:21:10;;;;;;;8.85;4.05;;;12.10;99.90;;;;;;5054065;28;20022;-73
2022/10/06 05:23:37;;;;;;;7.90;4.40;;;12.10;99.90;;;;;;5053363;28;20051;-72
2022/10/06 05:26:03;;;;;;;7.53;4.25;;;12.10;99.90;;;;;;5053366;28;20037;-72
2022/10/06 05:28:30;;;;;;;7.78;4.20;;;12.10;99.90;;;;;;5054857;28;20090;-73
2022/10/06 05:31:26;;;;;;;7.25;3.95;;;12.10;99.90;;;;;;5053787;28;20048;-73
2022/10/06 05:33:53;;;;;;;5.72;3.53;;;12.10;99.90;;;;;;5049221;28;20120;-77
2022/10/06 05:36:24;;;;;;;7.30;4.40;;;12.10;99.90;;;;;;5054081;28;20083;-72
2022/10/06 05:38:49;;;;;;;;;;;12.10;99.90;;;;;;5054506;28;20477;-72
2022/10/06 05:41:22;;;;;;;11.52;4.47;;;12.10;99.90;;;;;;5054433;28;19947;-73
2022/10/06 05:43:48;;;;;;;9.63;4.65;;;12.20;99.90;;;;;;5054295;28;20035;-72
2022/10/06 05:46:19;;;;;;;6.72;4.28;;;12.20;99.90;;;;;;5053618;28;20416;-73
2022/10/06 05:48:46;;;;;;;6.13;3.97;;;12.20;99.90;;;;;;5054308;28;20135;-73
2022/10/06 05:51:13;;;;;;;7.78;4.43;;;12.10;99.90;;;;;;5054019;28;20116;-73
2022/10/06 05:53:39;;;;;;;9.32;4.63;;;12.20;99.90;;;;;;5054335;28;20364;-73
2022/10/06 05:56:16;;;;;;;10.77;4.45;;;12.20;99.90;;;;;;5053847;28;20108;-72
2022/10/06 05:58:43;;;;;;;7.32;4.20;;;12.20;99.90;;;;;;5054278;28;20067;-73
2022/10/06 06:01:15;;;;;;;11.57;4.38;;;12.30;99.90;;;;;;5053335;28;20040;-73
2022/10/06 06:03:45;;;;;;;8.38;4.75;;;12.30;99.90;;;;;;5052885;28;20021;-73
2022/10/06 06:06:35;;;;;;;17.35;5.22;;;12.30;99.90;;;;;;5053407;28;20462;-73
2022/10/06 06:09:01;;;;;;;12.25;5.53;;;12.40;99.90;;;;;;5053514;28;20056;-73
2022/10/06 06:11:30;;;;;;;13.45;4.88;;;12.40;99.90;;;;;;5053742;28;20469;-73
2022/10/06 06:13:57;;;;;;;10.73;5.72;;;12.40;99.90;;;;;;5053304;28;20028;-74
2022/10/06 06:16:23;;;;;;;12.43;5.75;;;12.40;99.90;;;;;;5053582;28;20032;-72
2022/10/06 06:18:49;;;;;;;8.23;4.78;;;12.50;99.90;;;;;;5053683;28;20037;-72
2022/10/06 06:21:15;;;;;;;8.73;4.82;;;12.50;99.90;;;;;;5053422;28;20077;-72
2022/10/06 06:23:45;;;;;;;7.88;4.68;;;12.60;99.90;;;;;;5051477;28;20032;-73
2022/10/06 06:26:13;;;;;;;13.40;4.82;;;12.60;99.90;;;;;;5053301;28;20420;-73
2022/10/06 06:28:40;;;;;;;7.38;4.50;;;12.70;99.90;;;;;;5053721;28;20025;-73
2022/10/06 06:31:11;;;;;;;11.75;4.68;;;12.70;99.90;;;;;;5052912;28;20067;-73
2022/10/06 06:33:38;;;;;;;7.47;4.70;;;12.80;99.90;;;;;;5053451;28;20052;-73
2022/10/06 06:36:16;;;;;;;11.88;4.75;;;12.80;99.90;;;;;;5052780;28;20424;-73
2022/10/06 06:38:45;;;;;;;12.68;4.63;;;12.80;99.90;;;;;;5053070;28;20144;-73
2022/10/06 06:41:22;;;;;;;8.70;5.05;;;12.90;99.90;;;;;;5052860;28;20021;-73
2022/10/06 06:43:49;;;;;;;11.18;5.40;;;12.90;99.90;;;;;;5052831;28;20527;-73
2022/10/06 06:46:17;;;;;;;8.35;4.88;;;13.00;99.90;;;;;;5052501;28;20029;-73
2022/10/06 06:48:44;;;;;;;8.18;4.40;;;13.10;99.90;;;;;;5053209;28;20032;-73
2022/10/06 06:51:10;;;;;;;12.80;4.60;;;13.10;99.90;;;;;;5052824;28;20083;-74
2022/10/06 06:53:38;;;;;;;8.63;4.82;;;13.20;99.90;;;;;;5053078;28;20059;-73
2022/10/06 06:56:04;;;;;;;10.40;5.10;;;13.20;99.90;;;;;;5052753;28;20025;-73
2022/10/06 06:58:31;;;;;;;13.27;5.18;;;13.30;99.90;;;;;;5053022;28;20037;-74
2022/10/06 07:01:10;;;;;;;10.38;4.93;;;13.30;99.90;;;;;;5052822;28;20505;-78
2022/10/06 07:03:38;;;;;;;11.30;4.80;;;13.40;99.90;;;;;;5053010;28;20031;-74
2022/10/06 07:06:07;;;;;;;10.40;5.53;;;13.50;99.90;;;;;;5052516;28;20535;-73
2022/10/06 07:08:37;;;;;;;9.02;5.75;;;13.50;99.90;;;;;;5052817;28;20044;-72
2022/10/06 07:11:15;;;;;;;12.30;5.18;;;13.60;99.90;;;;;;5052558;28;20070;-72
2022/10/06 07:13:41;;;;;;;12.30;4.65;;;13.70;99.90;;;;;;5052480;28;20040;-72
2022/10/06 07:27:07;;;;;;;13.23;5.95;;;14.90;99.90;;;;;;5052175;28;20504;-72
2022/10/06 07:29:33;;;;;;;12.30;5.85;;;15.30;99.90;;;;;;5052583;28;20033;-73
2022/10/06 07:31:58;;;;;;;10.07;5.22;;;15.60;99.90;;;;;;5052661;28;20045;-80
2022/10/06 07:34:25;;;;;;;14.00;5.65;;;15.90;99.90;;;;;;5052374;28;20021;-72
2022/10/06 07:36:52;;;;;;;10.63;4.95;;;16.10;99.90;;;;;;5052586;28;20029;-73
2022/10/06 07:39:19;;;;;;;9.68;5.20;;;16.40;99.60;;;;;;5052423;28;20129;-73
2022/10/06 07:41:45;;;;;;;8.63;5.30;;;16.70;99.00;;;;;;5052518;28;20021;-72
2022/10/06 07:44:10;;;;;;;8.55;4.80;;;17.00;98.30;;;;;;5052046;28;20083;-73
2022/10/06 07:46:36;;;;;;;14.43;5.97;;;17.30;98.20;;;;;;5052695;28;20449;-72
2022/10/06 07:49:02;;;;;;;10.38;4.90;;;17.60;96.40;;;;;;5052153;28;20462;-73
2022/10/06 07:51:27;;;;;;;10.73;5.45;;;18.00;95.70;;;;;;5052251;28;20032;-73
2022/10/06 07:53:53;;;;;;;11.02;5.38;;;18.40;94.10;;;;;;5052294;28;20135;-72
2022/10/06 07:56:19;;;;;;;13.63;5.25;;;18.80;93.40;;;;;;5051725;28;20029;-72
2022/10/06 07:58:50;;;;;;;12.20;4.97;;;19.40;92.40;;;;;;5052198;28;20041;-72
2022/10/06 08:01:17;;;;;;;9.40;5.20;;;20.10;90.60;;;;;;5052058;28;20040;-71
2022/10/06 08:03:47;;;;;;;8.05;4.72;;;20.80;83.70;;;;;;5052115;28;20033;-73
2022/10/06 08:06:16;;;;;;;13.00;4.10;;;21.50;79.60;;;;;;5051890;28;20100;-73
2022/10/06 08:08:42;;;;;;;6.53;3.85;;;21.70;75.10;;;;;;5052436;28;20031;-72
2022/10/06 08:11:10;;;;;;;7.93;4.28;;;21.60;73.90;;;;;;5051923;28;20029;-72
2022/10/06 08:13:38;;;;;;;11.80;4.50;;;21.70;73.30;;;;;;5052266;28;20054;-73
2022/10/06 08:16:18;;;;;;;7.45;4.28;;;21.80;73.10;;;;;;5051731;28;20029;-72
2022/10/06 08:18:52;;;;;;;9.95;4.43;;;21.80;74.20;;;;;;5051833;28;20469;-71
2022/10/06 08:21:23;;;;;;;8.25;4.72;;;21.80;73.00;;;;;;5051667;28;20102;-72
2022/10/06 08:23:50;;;;;;;6.38;3.63;;;21.80;73.40;;;;;;5052059;28;20029;-73
2022/10/06 08:26:18;;;;;;;8.63;3.60;;;21.80;72.70;;;;;;5051831;28;20036;-73
2022/10/06 08:28:47;;;;;;;7.65;4.35;;;21.80;72.10;;;;;;5051991;28;20025;-72
2022/10/06 08:31:14;;;;;;;10.13;4.03;;;21.80;73.20;;;;;;5051830;28;20140;-72
2022/10/06 08:33:41;;;;;;;6.35;3.95;;;21.80;72.30;;;;;;5052063;28;20037;-73
2022/10/06 08:36:18;;;;;;;7.75;4.18;;;21.90;72.40;;;;;;5051141;28;20032;-73
2022/10/06 08:38:50;;;;;;;6.63;4.28;;;22.00;71.50;;;;;;5052013;28;20108;-73
2022/10/06 08:41:26;;;;;;;4.63;2.70;;;22.10;71.20;;;;;;5051804;28;20029;-73
2022/10/06 08:44:01;;;;;;;8.60;3.42;;;22.10;69.50;;;;;;5052130;28;20028;-73
2022/10/06 08:46:45;;;;;;;9.60;3.20;;;22.20;70.20;;;;;;5052027;28;20036;-73
2022/10/06 08:49:17;;;;;;;5.65;3.95;;;22.30;70.60;;;;;;5055307;28;20029;-73
2022/10/06 08:52:14;;;;;;;12.02;2.80;;;22.40;70.50;;;;;;5055803;28;20044;-73
2022/10/06 08:54:57;;;;;;;10.25;3.22;;;22.50;69.50;;;;;;5055758;28;20029;-72
2022/10/06 08:57:40;;;;;;;5.65;3.08;;;22.60;70.10;;;;;;5054896;28;20029;-72
2022/10/06 09:00:15;;;;;;;7.85;3.45;;;22.70;69.50;;;;;;5054749;28;20643;-73
2022/10/06 09:02:46;;;;;;;6.20;2.80;;;22.80;69.60;;;;;;5055358;28;20133;-74
2022/10/06 09:05:22;;;;;;;6.95;2.70;;;23.00;69.30;;;;;;5054625;28;20120;-72
2022/10/06 09:08:23;;;;;;;5.18;2.75;;;23.20;67.90;;;;;;5055501;28;20029;-73
2022/10/06 09:11:10;;;;;;;2.67;1.52;;;23.30;66.70;;;;;;5055325;28;20029;-72
2022/10/06 09:13:46;;;;;;;5.63;1.40;;;23.30;64.00;;;;;;5055678;28;20453;-73
2022/10/06 09:16:16;;;;;;;3.17;1.05;;;23.40;64.20;;;;;;5054564;28;20031;-74
2022/10/06 09:18:54;;;;;;;2.05;1.15;;;23.40;62.30;;;;;;5055124;28;20116;-73
2022/10/06 09:21:37;;;;;;;3.08;1.13;;;23.50;63.40;;;;;;5054439;28;20476;-71
2022/10/06 09:24:15;;;;;;;2.70;1.30;;;23.60;63.50;;;;;;5054930;28;20025;-72
2022/10/06 09:26:47;;;;;;;5.68;1.48;;;23.50;62.00;;;;;;5055042;28;20368;-72
2022/10/06 09:29:13;;;;;;;2.63;1.27;;;23.60;63.10;;;;;;5053991;28;20086;-72
2022/10/06 09:31:42;;;;;;;3.88;1.23;;;23.60;61.80;;;;;;5053470;28;20080;-73
2022/10/06 09:34:17;;;;;;;1.77;1.23;;;23.70;62.10;;;;;;5054256;28;20083;-81
2022/10/06 09:37:07;;;;;;;1.20;1.00;;;23.70;61.60;;;;;;5054515;28;20032;-71
2022/10/06 09:39:38;;;;;;;5.28;1.33;;;23.70;61.10;;;;;;5054544;28;20029;-73
2022/10/06 09:42:10;;;;;;;1.42;1.10;;;23.80;61.80;;;;;;5054494;28;20029;-73
2022/10/06 09:44:52;;;;;;;1.92;1.13;;;23.90;61.60;;;;;;5054605;28;20028;-73
2022/10/06 09:47:43;;;;;;;3.88;1.52;;;24.00;61.10;;;;;;5053899;28;20362;-73
2022/10/06 09:50:20;;;;;;;1.67;1.02;;;24.00;60.00;;;;;;5054029;28;20411;-80
2022/10/06 09:53:02;;;;;;;2.35;1.45;;;24.00;60.90;;;;;;5054188;28;20417;-73
2022/10/06 09:55:32;;;;;;;5.78;1.48;;;24.20;60.20;;;;;;5053839;28;20028;-73
2022/10/06 09:57:59;;;;;;;5.15;1.70;;;24.20;60.30;;;;;;5053959;28;20040;-73
2022/10/06 10:00:37;;;;;;;2.92;1.70;;;24.20;60.90;;;;;;5053577;28;20535;-72
2022/10/06 10:03:09;;;;;;;5.47;1.52;;;24.30;60.40;;;;;;5053853;28;20485;-72
2022/10/06 10:05:38;;;;;;;1.98;1.00;;;24.30;59.60;;;;;;5053986;28;20036;-73
2022/10/06 10:08:21;;;;;;;4.18;1.60;;;24.30;60.10;;;;;;5053994;28;20086;-73
2022/10/06 10:10:48;;;;;;;2.08;1.23;;;24.40;59.60;;;;;;5053949;28;20036;-72
2022/10/06 10:13:25;;;;;;;1.67;1.13;;;24.40;59.50;;;;;;5053399;28;20025;-73
2022/10/06 10:15:59;;;;;;;3.45;1.70;;;24.40;59.10;;;;;;5054106;28;20029;-72
2022/10/06 10:18:29;;;;;;;2.40;1.30;;;24.40;59.30;;;;;;5053013;28;20389;-72
2022/10/06 10:21:05;;;;;;;3.97;1.73;;;24.40;59.30;;;;;;5053804;28;20032;-72
2022/10/06 10:23:35;;;;;;;2.63;1.15;;;24.50;59.00;;;;;;5053107;28;20037;-72
2022/10/06 10:26:25;;;;;;;4.72;1.35;;;24.50;58.70;;;;;;5053480;28;20082;-72
2022/10/06 10:29:10;;;;;;;3.35;1.23;;;24.60;59.10;;;;;;5053506;28;20028;-72
2022/10/06 10:32:10;;;;;;;2.33;1.23;;;24.60;58.90;;;;;;5052999;28;20041;-71
2022/10/06 10:34:47;;;;;;;6.40;1.25;;;24.60;59.40;;;;;;5053215;28;20075;-71
2022/10/06 10:37:23;;;;;;;1.40;1.20;;;24.70;58.40;;;;;;5052977;28;20029;-73
2022/10/06 10:40:06;;;;;;;3.72;2.08;;;24.50;58.00;;;;;;5053445;28;20083;-73
2022/10/06 10:42:51;;;;;;;4.40;1.40;;;24.60;58.80;;;;;;5052934;28;20102;-73
2022/10/06 10:45:27;;;;;;;3.55;1.45;;;24.70;58.40;;;;;;5052365;28;20032;-72
2022/10/06 10:47:55;;;;;;;1.63;1.00;;;24.70;58.20;;;;;;5053323;28;20040;-73
2022/10/06 10:50:33;;;;;;;1.73;1.35;;;24.60;57.70;;;;;;5053135;28;20465;-73
2022/10/06 10:53:22;;;;;;;2.78;1.50;;;24.60;58.50;;;;;;5053190;28;20021;-73
2022/10/06 10:55:50;;;;;;;2.75;1.38;;;24.80;58.80;;;;;;5052820;28;20029;-73
2022/10/06 10:58:19;;;;;;;1.80;1.20;;;24.80;58.50;;;;;;5052417;28;20052;-72
2022/10/06 11:00:50;;;;;;;1.88;1.20;;;24.80;59.70;;;;;;5052767;28;20035;-73
2022/10/06 11:03:16;;;;;;;3.25;1.27;;;24.90;57.90;;;;;;5052299;28;20043;-74
2022/10/06 11:05:54;;;;;;;5.28;1.55;;;25.00;57.80;;;;;;5052702;28;20111;-73
2022/10/06 11:08:53;;;;;;;4.25;1.88;;;25.00;58.30;;;;;;5052439;28;20033;-74
2022/10/06 11:11:38;;;;;;;4.97;1.60;;;24.90;58.10;;;;;;5052256;28;20125;-72
2022/10/06 11:14:23;;;;;;;1.63;1.23;;;25.10;58.10;;;;;;5052753;28;20040;-72
2022/10/06 11:17:14;;;;;;;2.53;1.27;;;25.10;57.80;;;;;;5052525;28;20051;-74
2022/10/06 11:19:56;;;;;;;2.92;1.20;;;25.20;58.40;;;;;;5036282;28;20127;-72
2022/10/06 11:22:43;;;;;;;6.07;1.23;;;25.10;58.00;;;;;;5052368;28;20088;-73
2022/10/06 11:25:24;;;;;;;2.25;1.40;;;25.10;57.90;;;;;;5052582;28;20028;-72
2022/10/06 11:28:19;;;;;;;5.38;1.35;;;25.10;58.40;;;;;;5051720;28;20415;-72
2022/10/06 11:30:56;;;;;;;1.90;1.20;;;25.10;58.60;;;;;;5051930;28;20068;-73
2022/10/06 11:33:46;;;;;;;5.50;1.50;;;25.00;57.50;;;;;;5052209;28;20064;-72
2022/10/06 11:36:17;;;;;;;;;;;24.80;57.60;;;;;;5052236;28;20127;-72
2022/10/06 11:38:55;;;;;;;4.88;1.17;;;24.70;57.70;;;;;;5052384;28;19908;-72
2022/10/06 11:42:03;;;;;;;2.53;1.20;;;24.70;59.30;;;;;;5050705;28;20467;-73
2022/10/06 11:44:43;;;;;;;3.75;1.13;;;24.80;59.60;;;;;;5040560;28;20444;-73
2022/10/06 11:47:22;;;;;;;3.45;1.20;;;24.80;58.50;;;;;;5052591;28;20047;-73
2022/10/06 11:49:53;;;;;;;1.90;1.30;;;24.70;58.60;;;;;;5052326;28;20377;-72
2022/10/06 11:52:19;;;;;;;2.40;1.35;;;24.90;59.20;;;;;;5051866;28;20032;-73
2022/10/06 11:54:51;;;;;;;2.63;1.50;;;24.90;58.40;;;;;;5052667;28;20025;-73
2022/10/06 11:57:24;;;;;;;3.85;1.40;;;24.70;57.80;;;;;;5052312;28;20079;-72
2022/10/06 11:59:54;;;;;;;2.95;1.30;;;24.70;58.90;;;;;;5052257;28;20106;-72
2022/10/06 12:02:31;;;;;;;2.92;1.45;;;24.80;59.20;;;;;;5052203;28;20451;-74
2022/10/06 12:05:09;;;;;;;1.20;1.10;;;24.80;58.70;;;;;;5052010;28;20075;-72
2022/10/06 12:07:53;;;;;;;2.55;1.67;;;24.90;58.80;;;;;;5051748;28;20025;-72
2022/10/06 12:10:27;;;;;;;2.10;1.35;;;24.90;58.50;;;;;;5051688;28;20533;-72
2022/10/06 12:13:15;;;;;;;2.45;1.42;;;25.10;57.90;;;;;;5052203;28;20047;-73
2022/10/06 12:16:01;;;;;;;4.03;1.30;;;25.10;58.40;;;;;;5051780;28;20068;-72
2022/10/06 12:18:29;;;;;;;2.88;1.27;;;25.10;57.80;;;;;;5051761;28;20417;-73
2022/10/06 12:21:24;;;;;;;2.35;1.45;;;25.00;58.00;;;;;;5052038;28;20029;-73
2022/10/06 12:23:59;;;;;;;2.20;1.45;;;24.90;57.70;;;;;;5055803;28;20060;-72
2022/10/06 12:26:28;;;;;;;2.10;1.40;;;24.70;57.90;;;;;;5054849;28;20492;-72
2022/10/06 12:29:26;;;;;;;3.97;1.48;;;24.80;58.10;;;;;;5055616;28;20443;-72
2022/10/06 12:31:54;;;;;;;2.00;1.42;;;24.70;58.20;;;;;;5046282;28;20088;-72
2022/10/06 12:34:38;;;;;;;1.58;1.30;;;24.70;58.70;;;;;;5055591;28;20104;-72
2022/10/06 12:37:35;;;;;;;3.15;1.35;;;24.70;58.80;;;;;;5055672;28;20075;-72
2022/10/06 12:40:57;;;;;;;1.38;1.20;;;24.70;58.60;;;;;;5055638;28;20025;-73
2022/10/06 12:43:24;;;;;;;2.85;1.63;;;24.70;58.60;;;;;;5055305;28;20052;-74
2022/10/06 12:46:14;;;;;;;2.70;1.55;;;24.60;58.10;;;;;;5055191;28;20059;-72
2022/10/06 12:49:13;;;;;;;1.50;1.15;;;24.50;58.50;;;;;;5054779;28;20036;-71
2022/10/06 12:51:41;;;;;;;3.13;1.42;;;24.40;59.30;;;;;;5055026;28;20025;-72
2022/10/06 12:54:21;;;;;;;1.73;1.17;;;24.30;59.80;;;;;;5055375;28;20493;-72
2022/10/06 12:57:01;;;;;;;4.30;1.40;;;24.30;59.90;;;;;;5054706;28;20024;-73
2022/10/06 12:59:34;;;;;;;1.75;1.30;;;24.20;60.30;;;;;;5055015;28;20112;-72
2022/10/06 13:02:01;;;;;;;5.53;2.10;;;24.20;60.30;;;;;;5055264;28;20028;-72
2022/10/06 13:04:33;;;;;;;2.80;1.60;;;24.10;60.10;;;;;;5054829;28;20056;-72
2022/10/06 13:07:01;;;;;;;1.48;1.20;;;24.00;60.30;;;;;;5055238;28;20029;-72
2022/10/06 13:09:26;;;;;;;1.85;1.45;;;24.00;60.50;;;;;;5054783;28;20033;-72
2022/10/06 13:11:52;;;;;;;4.18;1.60;;;24.00;60.50;;;;;;5055388;28;20388;-71
2022/10/06 13:14:17;;;;;;;3.42;1.58;;;23.90;60.70;;;;;;5055022;28;20361;-72
2022/10/06 13:16:45;;;;;;;4.22;1.50;;;23.80;60.60;;;;;;5054068;28;20528;-72
2022/10/06 13:19:25;;;;;;;2.58;1.38;;;23.80;60.80;;;;;;5054983;28;20027;-71
2022/10/06 13:21:51;;;;;;;5.25;2.38;;;23.80;62.20;;;;;;5054755;28;20043;-72